createdAt,value
2018-09-05T00:00:28.533Z,101357.58
2018-09-05T00:02:57.004Z,101355.97
2018-09-05T00:05:26.431Z,101356.28
2018-09-05T00:07:54.942Z,101359.86
2018-09-05T00:10:23.521Z,101355.79
2018-09-05T00:12:52.316Z,101349.48
2018-09-05T00:15:21.037Z,101359.27
2018-09-05T00:17:49.487Z,101351.42
2018-09-05T00:20:21.102Z,101353.70
2018-09-05T00:22:49.979Z,101353.66
2018-09-05T00:25:18.679Z,101351.98
2018-09-05T00:27:47.709Z,101354.86
2018-09-05T00:30:16.390Z,101353.29
2018-09-05T00:32:45.027Z,101358.81
2018-09-05T00:35:13.588Z,101350.64
2018-09-05T00:37:42.380Z,101362.78
2018-09-05T00:40:11.123Z,101362.63
2018-09-05T00:42:39.985Z,101364.01
2018-09-05T00:45:08.738Z,101357.09
2018-09-05T00:47:38.341Z,101353.77
2018-09-05T00:50:07.172Z,101350.45
2018-09-05T00:52:35.919Z,101360.23
2018-09-05T00:55:04.639Z,101354.70
2018-09-05T00:57:33.322Z,101360.00
2018-09-05T01:00:02.194Z,101358.95
2018-09-05T01:02:31.032Z,101365.86
2018-09-05T01:05:01.628Z,101367.02
2018-09-05T01:07:30.455Z,101362.38
2018-09-05T01:09:59.072Z,101362.13
2018-09-05T01:12:27.835Z,101366.00
2018-09-05T01:14:56.621Z,101368.58
2018-09-05T01:17:25.164Z,101366.67
2018-09-05T01:19:53.726Z,101362.52
2018-09-05T01:22:22.699Z,101359.27
2018-09-05T01:24:51.614Z,101361.51
2018-09-05T01:27:20.187Z,101360.19
2018-09-05T01:29:48.755Z,101359.11
2018-09-05T01:32:17.298Z,101358.88
2018-09-05T01:34:45.914Z,101363.95
2018-09-05T01:37:14.578Z,101365.59
2018-09-05T01:39:43.955Z,101363.95
2018-09-05T01:42:12.607Z,101364.05
2018-09-05T01:44:41.732Z,101368.16
2018-09-05T01:47:10.653Z,101377.76
2018-09-05T01:49:39.847Z,101370.13
2018-09-05T01:52:08.399Z,101372.39
2018-09-05T01:54:37.002Z,101373.81
2018-09-05T01:57:06.158Z,101377.75
2018-09-05T01:59:34.637Z,101370.88
2018-09-05T02:02:03.412Z,101372.63
2018-09-05T02:04:32.219Z,101371.63
2018-09-05T02:07:00.767Z,101370.22
2018-09-05T02:09:29.274Z,101372.42
2018-09-05T02:12:00.926Z,101372.16
2018-09-05T02:14:29.441Z,101370.25
2018-09-05T02:16:58.056Z,101363.94
2018-09-05T02:19:27.139Z,101367.55
2018-09-05T02:21:55.978Z,101362.55
2018-09-05T02:24:24.615Z,101363.67
2018-09-05T02:26:53.133Z,101367.84
2018-09-05T02:29:22.351Z,101365.41
2018-09-05T02:31:50.884Z,101373.43
2018-09-05T02:34:19.780Z,101371.61
2018-09-05T02:36:48.336Z,101371.34
2018-09-05T02:39:16.967Z,101377.92
2018-09-05T02:41:45.664Z,101374.38
2018-09-05T02:44:22.195Z,101365.63
2018-09-05T02:46:51.789Z,101373.84
2018-09-05T02:49:20.705Z,101367.27
2018-09-05T02:51:49.614Z,101373.20
2018-09-05T02:54:18.238Z,101370.77
2018-09-05T02:56:47.601Z,101368.71
2018-09-05T02:59:16.067Z,101369.93
2018-09-05T03:01:44.968Z,101365.28
2018-09-05T03:04:13.659Z,101371.27
2018-09-05T03:06:42.440Z,101366.69
2018-09-05T03:09:10.982Z,101377.86
2018-09-05T03:11:39.747Z,101381.86
2018-09-05T03:14:09.307Z,101381.19
2018-09-05T03:16:38.517Z,101389.94
2018-09-05T03:19:06.966Z,101387.70
2018-09-05T03:21:35.506Z,101387.33
2018-09-05T03:24:03.961Z,101382.66
2018-09-05T03:26:32.855Z,101392.63
2018-09-05T03:29:01.346Z,101393.22
2018-09-05T03:31:30.938Z,101382.01
2018-09-05T03:33:59.473Z,101386.38
2018-09-05T03:36:28.206Z,101393.67
2018-09-05T03:38:56.839Z,101394.68
2018-09-05T03:41:25.541Z,101389.22
2018-09-05T03:43:53.989Z,101399.35
2018-09-05T03:46:22.729Z,101399.91
2018-09-05T03:48:51.383Z,101393.30
2018-09-05T03:51:19.912Z,101397.52
2018-09-05T03:53:48.887Z,101397.56
2018-09-05T03:56:17.941Z,101400.21
2018-09-05T03:58:46.995Z,101403.53
